createdAt,value
2019-03-12T00:02:24.786Z,96.20
2019-03-12T00:04:53.176Z,96.00
2019-03-12T00:07:21.555Z,96.00
2019-03-12T00:09:49.935Z,96.00
2019-03-12T00:12:18.312Z,95.90
2019-03-12T00:14:46.689Z,95.60
2019-03-12T00:17:15.075Z,95.40
2019-03-12T00:19:43.457Z,95.20
2019-03-12T00:22:11.828Z,95.20
2019-03-12T00:24:40.212Z,95.00
2019-03-12T00:27:08.656Z,95.00
2019-03-12T00:29:37.039Z,94.90
2019-03-12T00:32:05.415Z,94.60
2019-03-12T00:34:33.799Z,94.20
2019-03-12T00:37:02.172Z,93.80
2019-03-12T00:39:30.555Z,93.50
2019-03-12T00:41:58.937Z,93.60
2019-03-12T00:44:27.313Z,93.60
2019-03-12T00:46:55.681Z,93.30
2019-03-12T00:49:24.136Z,93.10
2019-03-12T00:51:52.512Z,93.00
2019-03-12T00:54:20.880Z,92.70
2019-03-12T00:56:49.288Z,92.60
2019-03-12T00:59:17.648Z,92.60
2019-03-12T01:01:46.034Z,92.60
2019-03-12T01:04:14.419Z,92.30
2019-03-12T01:06:42.788Z,92.30
2019-03-12T01:09:11.202Z,92.30
2019-03-12T01:11:39.624Z,92.40
2019-03-12T01:14:08.001Z,92.00
2019-03-12T01:16:36.384Z,92.20
2019-03-12T01:19:04.759Z,92.30
2019-03-12T01:21:33.123Z,92.60
2019-03-12T01:24:01.514Z,92.80
2019-03-12T01:26:29.879Z,93.10
2019-03-12T01:28:58.270Z,93.20
2019-03-12T01:31:26.649Z,93.20
2019-03-12T01:33:55.036Z,93.60
2019-03-12T01:36:23.408Z,93.80
2019-03-12T01:38:51.791Z,93.90
2019-03-12T01:41:20.164Z,94.00
2019-03-12T01:43:48.543Z,93.80
2019-03-12T01:46:16.920Z,93.70
2019-03-12T01:48:45.297Z,93.90
2019-03-12T01:51:13.706Z,94.30
2019-03-12T01:53:42.061Z,94.50
2019-03-12T01:56:10.460Z,94.50
2019-03-12T01:58:38.831Z,94.40
2019-03-12T02:01:07.212Z,94.10
2019-03-12T02:03:35.602Z,94.10
2019-03-12T02:06:04.100Z,94.30
2019-03-12T02:08:32.471Z,94.50
2019-03-12T02:11:00.851Z,94.90
2019-03-12T02:13:29.232Z,95.00
2019-03-12T02:15:57.608Z,95.10
2019-03-12T02:18:25.993Z,95.20
2019-03-12T02:20:54.374Z,95.10
2019-03-12T02:23:22.768Z,95.10
2019-03-12T02:25:51.151Z,95.10
2019-03-12T02:28:19.545Z,95.20
2019-03-12T02:30:47.925Z,95.20
2019-03-12T02:33:16.316Z,95.20
2019-03-12T02:35:44.700Z,95.20
2019-03-12T02:38:13.069Z,95.40
2019-03-12T02:40:41.455Z,95.40
2019-03-12T02:43:29.174Z,95.30
2019-03-12T02:45:57.555Z,95.20
2019-03-12T02:48:25.931Z,95.30
2019-03-12T02:50:54.314Z,95.30
2019-03-12T02:53:22.688Z,95.30
2019-03-12T02:55:51.072Z,95.30
2019-03-12T02:58:19.447Z,95.30
2019-03-12T03:00:47.828Z,95.40
2019-03-12T03:03:16.196Z,95.50
2019-03-12T03:05:55.020Z,95.50
2019-03-12T03:08:25.057Z,95.60
2019-03-12T03:10:53.436Z,95.70
2019-03-12T03:13:21.801Z,95.80
2019-03-12T03:15:50.189Z,96.10
2019-03-12T03:18:18.583Z,96.30
2019-03-12T03:20:46.959Z,96.50
2019-03-12T03:23:15.404Z,96.50
2019-03-12T03:25:43.794Z,96.60
2019-03-12T03:28:12.166Z,96.50
2019-03-12T03:30:40.621Z,96.50
2019-03-12T03:33:09.030Z,96.50
2019-03-12T03:35:37.455Z,96.70
2019-03-12T03:38:05.852Z,96.60
2019-03-12T03:40:34.229Z,96.90
2019-03-12T03:43:02.607Z,97.00
2019-03-12T03:45:31.001Z,97.40
2019-03-12T03:47:59.598Z,97.70
2019-03-12T03:50:27.989Z,98.00
2019-03-12T03:52:56.367Z,98.00
2019-03-12T03:55:24.748Z,98.20
2019-03-12T03:57:53.127Z,98.40
2019-03-12T04:00:23.801Z,98.10
2019-03-12T04:02:52.177Z,98.00
2019-03-12T04:05:20.779Z,97.90
2019-03-12T04:07:49.175Z,97.70
2019-03-12T04:10:17.681Z,97.70
2019-03-12T04:12:46.049Z,97.70
2019-03-12T04:15:18.354Z,97.60
2019-03-12T04:17:46.880Z,97.60
2019-03-12T04:20:17.363Z,97.70
2019-03-12T04:22:45.743Z,97.80
2019-03-12T04:25:14.185Z,97.80
2019-03-12T04:27:42.564Z,97.70
2019-03-12T04:30:13.948Z,97.60
2019-03-12T04:32:42.353Z,97.60
2019-03-12T04:35:19.623Z,97.40
2019-03-12T04:37:48.019Z,97.60
2019-03-12T04:40:16.388Z,97.40
2019-03-12T04:42:44.772Z,97.50
2019-03-12T04:45:15.564Z,97.20
2019-03-12T04:47:43.939Z,97.70
2019-03-12T04:50:12.771Z,97.70
2019-03-12T04:52:41.151Z,97.60
2019-03-12T04:55:12.071Z,97.60
2019-03-12T04:57:40.445Z,97.70
2019-03-12T05:00:14.811Z,97.50
2019-03-12T05:02:43.188Z,97.40
2019-03-12T05:05:11.708Z,97.40
2019-03-12T05:07:40.091Z,97.20
2019-03-12T05:10:27.804Z,96.90
2019-03-12T05:12:56.195Z,96.90
2019-03-12T05:15:24.571Z,96.90
2019-03-12T05:17:52.948Z,96.30
2019-03-12T05:20:21.338Z,96.00
2019-03-12T05:22:49.711Z,95.60
2019-03-12T05:25:18.095Z,95.60
2019-03-12T05:27:46.483Z,95.80
2019-03-12T05:30:17.571Z,95.70
2019-03-12T05:32:45.946Z,95.20
2019-03-12T05:35:33.668Z,95.20
2019-03-12T05:38:22.808Z,94.80
2019-03-12T05:40:51.200Z,94.80
2019-03-12T05:43:19.572Z,95.00
2019-03-12T05:45:47.948Z,94.90
2019-03-12T05:48:16.335Z,94.80
2019-03-12T05:50:44.711Z,94.70
2019-03-12T05:53:14.942Z,94.60
2019-03-12T05:55:43.439Z,94.50
2019-03-12T05:58:11.840Z,94.40
2019-03-12T06:00:40.223Z,94.20
2019-03-12T06:03:08.613Z,94.20
2019-03-12T06:05:36.984Z,94.00
2019-03-12T06:08:05.356Z,93.80
2019-03-12T06:10:33.748Z,93.70
2019-03-12T06:13:02.128Z,94.00
2019-03-12T06:15:30.513Z,93.30
2019-03-12T06:17:58.893Z,93.10
2019-03-12T06:20:27.279Z,93.20
2019-03-12T06:22:55.660Z,92.70
2019-03-12T06:25:24.166Z,92.90
2019-03-12T06:27:52.595Z,92.40
2019-03-12T06:30:21.213Z,92.40
2019-03-12T06:33:00.425Z,92.50
2019-03-12T06:35:33.443Z,92.30
2019-03-12T06:38:03.453Z,91.70
2019-03-12T06:40:49.694Z,91.80
2019-03-12T06:43:28.995Z,91.50
2019-03-12T06:46:11.163Z,91.50
2019-03-12T06:48:43.912Z,91.40
2019-03-12T06:51:13.975Z,91.40
2019-03-12T06:53:44.001Z,90.90
2019-03-12T06:56:22.848Z,90.60
2019-03-12T06:58:52.880Z,90.60
2019-03-12T07:01:40.902Z,91.40
2019-03-12T07:04:10.932Z,91.20
2019-03-12T07:06:43.345Z,91.40
2019-03-12T07:09:13.376Z,91.20
2019-03-12T07:11:46.302Z,91.10
2019-03-12T07:14:25.303Z,91.00
2019-03-12T07:16:55.298Z,90.90
2019-03-12T07:19:30.782Z,90.60
2019-03-12T07:22:09.976Z,90.70
2019-03-12T07:24:42.672Z,90.50
2019-03-12T07:27:12.694Z,90.40
2019-03-12T07:29:59.036Z,90.00
2019-03-12T07:32:44.319Z,90.20
2019-03-12T07:35:14.417Z,90.00
2019-03-12T07:37:53.723Z,90.10
2019-03-12T07:40:32.801Z,89.80
2019-03-12T07:43:19.153Z,88.20
2019-03-12T07:45:52.306Z,89.80
2019-03-12T07:48:25.027Z,90.00
2019-03-12T07:50:57.988Z,90.10
2019-03-12T07:53:28.007Z,90.30
2019-03-12T07:56:01.111Z,90.20
2019-03-12T07:58:35.764Z,90.00
2019-03-12T08:01:05.550Z,89.80
2019-03-12T08:03:51.601Z,89.80
2019-03-12T08:06:36.780Z,89.20
2019-03-12T08:09:14.233Z,89.30
2019-03-12T08:11:50.217Z,87.50
2019-03-12T08:14:20.235Z,88.40
2019-03-12T08:16:50.267Z,86.70
2019-03-12T08:19:20.291Z,87.10
2019-03-12T08:21:59.119Z,87.30
2019-03-12T08:24:29.148Z,86.40
2019-03-12T08:26:59.164Z,85.70
2019-03-12T08:29:31.863Z,84.70
2019-03-12T08:32:04.567Z,85.40
2019-03-12T08:34:40.591Z,85.30
2019-03-12T08:37:10.599Z,86.60
2019-03-12T08:39:46.464Z,84.30
2019-03-12T08:42:32.975Z,83.80
2019-03-12T08:45:11.307Z,84.60
2019-03-12T08:47:40.683Z,83.90
2019-03-12T08:50:11.644Z,84.80
2019-03-12T08:52:53.619Z,82.90
2019-03-12T08:55:26.640Z,83.70
2019-03-12T08:58:11.644Z,82.90
2019-03-12T09:00:53.740Z,82.90
2019-03-12T09:03:26.511Z,81.60
2019-03-12T09:05:56.521Z,83.80
2019-03-12T09:08:41.884Z,81.30
2019-03-12T09:11:14.844Z,82.90
2019-03-12T09:13:44.875Z,81.80
2019-03-12T09:16:14.896Z,79.00
2019-03-12T09:18:44.947Z,78.30
2019-03-12T09:21:15.035Z,79.10
2019-03-12T09:23:47.909Z,77.20
2019-03-12T09:26:30.203Z,76.40
2019-03-12T09:29:09.236Z,76.00
2019-03-12T09:31:39.268Z,74.80
2019-03-12T09:34:09.280Z,73.60
2019-03-12T09:36:48.216Z,73.60
2019-03-12T09:39:36.400Z,74.30
2019-03-12T09:42:15.612Z,73.50
2019-03-12T09:44:48.600Z,73.80
2019-03-12T09:47:21.552Z,71.10
2019-03-12T09:49:57.544Z,68.60
2019-03-12T09:52:30.489Z,69.00
2019-03-12T09:55:16.562Z,66.20
2019-03-12T09:57:55.700Z,69.70
2019-03-12T10:00:25.736Z,66.80
2019-03-12T10:03:12.300Z,66.00
2019-03-12T10:05:58.920Z,66.60
2019-03-12T10:08:28.943Z,66.80
2019-03-12T10:11:01.723Z,65.30
2019-03-12T10:13:48.029Z,64.50
2019-03-12T10:16:36.331Z,66.70
2019-03-12T10:19:09.067Z,67.50
2019-03-12T10:21:41.801Z,65.40
2019-03-12T10:24:23.630Z,66.30
2019-03-12T10:26:56.590Z,68.70
2019-03-12T10:29:41.324Z,69.80
2019-03-12T10:32:11.336Z,68.40
2019-03-12T10:34:43.799Z,67.10
2019-03-12T10:37:16.420Z,69.60
2019-03-12T10:40:12.784Z,67.00
2019-03-12T10:43:04.889Z,68.70
2019-03-12T10:45:34.927Z,69.50
2019-03-12T10:48:04.536Z,68.50
2019-03-12T10:50:33.060Z,59.80
2019-03-12T10:53:01.610Z,65.40
2019-03-12T10:55:29.993Z,58.40
2019-03-12T10:57:58.372Z,57.50
2019-03-12T11:00:26.756Z,56.60
2019-03-12T11:02:55.149Z,54.80
2019-03-12T11:05:23.597Z,56.30
2019-03-12T11:07:51.983Z,55.00
2019-03-12T11:10:20.496Z,55.00
2019-03-12T11:12:49.095Z,55.10
2019-03-12T11:15:17.612Z,56.60
2019-03-12T11:17:50.068Z,52.50
2019-03-12T11:20:23.943Z,56.00
2019-03-12T11:22:52.380Z,51.20
2019-03-12T11:25:27.174Z,50.40
2019-03-12T11:27:50.944Z,50.10
2019-03-12T11:30:20.154Z,51.40
2019-03-12T11:32:48.541Z,51.80
2019-03-12T11:35:16.914Z,54.00
2019-03-12T11:37:45.326Z,54.70
2019-03-12T11:40:16.588Z,52.80
2019-03-12T11:42:45.213Z,50.90
2019-03-12T11:45:17.966Z,50.10
2019-03-12T11:47:44.296Z,52.60
2019-03-12T11:50:15.326Z,51.30
2019-03-12T11:52:52.053Z,55.80
2019-03-12T11:55:15.269Z,51.90
2019-03-12T11:57:43.729Z,51.90
2019-03-12T12:00:20.514Z,53.00
2019-03-12T12:02:59.373Z,52.60
2019-03-12T12:05:19.037Z,54.30
2019-03-12T12:07:47.417Z,52.10
2019-03-12T12:10:17.953Z,52.00
2019-03-12T12:12:46.408Z,51.10
2019-03-12T12:15:16.035Z,50.70
2019-03-12T12:17:44.436Z,52.10
2019-03-12T12:20:14.155Z,55.50
2019-03-12T12:22:42.616Z,51.10
2019-03-12T12:25:16.109Z,52.60
2019-03-12T12:27:44.495Z,50.70
2019-03-12T12:30:23.758Z,50.80
2019-03-12T12:32:52.145Z,52.80
2019-03-12T12:35:20.520Z,51.50
2019-03-12T12:37:48.896Z,51.70
2019-03-12T12:40:20.352Z,51.10
2019-03-12T12:42:48.736Z,52.30
2019-03-12T12:45:26.199Z,52.70
2019-03-12T12:47:54.563Z,48.40
2019-03-12T12:50:22.943Z,50.20
2019-03-12T12:52:51.331Z,49.10
2019-03-12T12:55:19.775Z,45.60
2019-03-12T12:57:48.163Z,48.70
2019-03-12T13:00:18.985Z,46.60
2019-03-12T13:02:47.450Z,44.70
2019-03-12T13:05:15.834Z,46.60
2019-03-12T13:07:44.196Z,45.00
2019-03-12T13:10:21.284Z,45.90
2019-03-12T13:12:49.664Z,45.80
2019-03-12T13:15:18.039Z,45.90
2019-03-12T13:17:46.429Z,44.10
2019-03-12T13:20:14.884Z,44.50
2019-03-12T13:22:43.339Z,46.90
2019-03-12T13:25:16.637Z,47.80
2019-03-12T13:27:45.091Z,47.00
2019-03-12T13:30:21.356Z,48.90
2019-03-12T13:32:49.737Z,48.00
2019-03-12T13:35:18.661Z,47.50
2019-03-12T13:37:47.692Z,46.70
2019-03-12T13:40:20.879Z,50.00
2019-03-12T13:42:49.367Z,48.90
2019-03-12T13:45:22.729Z,48.00
2019-03-12T13:47:51.258Z,50.40
2019-03-12T13:50:20.021Z,52.00
2019-03-12T13:52:48.546Z,50.90
2019-03-12T13:55:17.239Z,51.80
2019-03-12T13:57:45.788Z,50.10
2019-03-12T14:00:19.188Z,49.40
2019-03-12T14:02:47.640Z,51.60
2019-03-12T14:05:16.255Z,51.00
2019-03-12T14:07:44.804Z,49.80
2019-03-12T14:10:20.792Z,51.50
2019-03-12T14:12:49.804Z,50.00
2019-03-12T14:15:27.093Z,52.10
2019-03-12T14:17:55.535Z,48.80
2019-03-12T14:20:41.426Z,49.20
2019-03-12T14:23:31.295Z,48.10
2019-03-12T14:25:59.754Z,48.60
2019-03-12T14:28:28.123Z,49.70
2019-03-12T14:30:56.659Z,49.00
2019-03-12T14:33:25.107Z,48.80
2019-03-12T14:35:53.557Z,50.10
2019-03-12T14:38:21.930Z,48.60
2019-03-12T14:40:50.393Z,47.80
2019-03-12T14:43:18.762Z,48.50
2019-03-12T14:45:51.716Z,48.70
2019-03-12T14:48:47.300Z,49.70
2019-03-12T14:51:24.341Z,49.20
2019-03-12T14:54:01.009Z,49.80
2019-03-12T14:56:30.716Z,48.40
2019-03-12T14:58:59.244Z,48.90
2019-03-12T15:01:27.620Z,47.30
2019-03-12T15:03:56.000Z,49.50
2019-03-12T15:06:24.391Z,50.40
2019-03-12T15:08:52.768Z,49.00
2019-03-12T15:11:21.144Z,50.00
2019-03-12T15:13:49.536Z,49.10
2019-03-12T15:16:17.912Z,48.00
2019-03-12T15:18:46.287Z,46.70
2019-03-12T15:21:14.669Z,47.50
2019-03-12T15:23:43.044Z,49.00
2019-03-12T15:26:11.433Z,49.40
2019-03-12T15:28:39.805Z,45.60
2019-03-12T15:31:08.197Z,47.10
2019-03-12T15:33:36.572Z,46.30
2019-03-12T15:36:05.020Z,49.10
2019-03-12T15:38:33.406Z,48.30
2019-03-12T15:41:01.784Z,47.50
2019-03-12T15:43:30.164Z,47.10
2019-03-12T15:45:58.615Z,48.00
2019-03-12T15:48:26.992Z,46.60
2019-03-12T15:50:55.385Z,45.00
2019-03-12T15:53:23.759Z,46.70
2019-03-12T15:55:52.140Z,46.30
2019-03-12T15:58:20.525Z,45.40
2019-03-12T16:00:48.907Z,47.20
2019-03-12T16:03:17.347Z,48.40
2019-03-12T16:05:45.766Z,45.30
2019-03-12T16:08:14.143Z,45.50
2019-03-12T16:10:42.525Z,45.20
2019-03-12T16:13:10.910Z,48.10
2019-03-12T16:15:39.300Z,48.10
2019-03-12T16:18:07.672Z,46.10
2019-03-12T16:20:36.073Z,45.60
2019-03-12T16:23:04.443Z,46.20
2019-03-12T16:25:32.828Z,47.10
2019-03-12T16:28:01.209Z,47.90
2019-03-12T16:30:29.590Z,47.30
2019-03-12T16:32:57.967Z,47.00
2019-03-12T16:35:26.343Z,46.10
2019-03-12T16:37:54.736Z,48.50
2019-03-12T16:40:23.111Z,46.20
2019-03-12T16:42:51.499Z,47.60
2019-03-12T16:45:20.922Z,46.90
2019-03-12T16:47:49.299Z,49.00
2019-03-12T16:50:18.328Z,47.30
2019-03-12T16:52:46.703Z,46.80
2019-03-12T16:55:19.315Z,47.20
2019-03-12T16:57:47.704Z,50.20
2019-03-12T17:00:19.872Z,46.60
2019-03-12T17:02:48.293Z,49.30
2019-03-12T17:05:16.725Z,48.50
2019-03-12T17:07:45.093Z,50.70
2019-03-12T17:10:20.447Z,47.00
2019-03-12T17:12:48.892Z,48.60
2019-03-12T17:15:25.451Z,47.90
2019-03-12T17:17:53.836Z,50.10
2019-03-12T17:20:22.207Z,50.40
2019-03-12T17:22:50.588Z,50.60
2019-03-12T17:25:18.973Z,51.10
2019-03-12T17:27:47.344Z,51.70
2019-03-12T17:30:20.499Z,50.80
2019-03-12T17:32:48.876Z,51.20
2019-03-12T17:35:37.360Z,51.30
2019-03-12T17:38:05.736Z,53.00
2019-03-12T17:40:34.112Z,52.30
2019-03-12T17:43:02.495Z,53.00
2019-03-12T17:45:30.860Z,51.50
2019-03-12T17:47:59.248Z,53.50
2019-03-12T17:50:27.624Z,54.80
2019-03-12T17:52:56.073Z,54.10
2019-03-12T17:55:24.475Z,52.30
2019-03-12T17:57:52.861Z,54.70
2019-03-12T18:00:33.815Z,53.40
2019-03-12T18:03:02.190Z,52.70
2019-03-12T18:05:30.564Z,54.10
2019-03-12T18:07:58.950Z,54.70
2019-03-12T18:10:27.436Z,53.50
2019-03-12T18:12:55.780Z,54.30
2019-03-12T18:15:24.169Z,55.50
2019-03-12T18:17:52.552Z,53.10
2019-03-12T18:20:23.047Z,53.00
2019-03-12T18:22:51.796Z,54.40
2019-03-12T18:25:35.201Z,53.90
2019-03-12T18:28:03.846Z,51.80
2019-03-12T18:30:32.296Z,50.90
2019-03-12T18:33:00.696Z,52.00
2019-03-12T18:35:29.148Z,50.60
2019-03-12T18:37:57.544Z,50.50
2019-03-12T18:40:27.190Z,49.50
2019-03-12T18:42:55.607Z,49.80
2019-03-12T18:45:25.232Z,52.80
2019-03-12T18:47:53.615Z,54.50
2019-03-12T18:50:22.071Z,55.90
2019-03-12T18:52:50.456Z,59.10
2019-03-12T18:55:24.828Z,59.70
2019-03-12T18:57:53.219Z,61.50
2019-03-12T19:00:21.595Z,64.50
2019-03-12T19:02:49.964Z,63.20
2019-03-12T19:05:18.349Z,65.20
2019-03-12T19:07:46.720Z,67.30
2019-03-12T19:10:17.061Z,69.80
2019-03-12T19:12:45.280Z,72.10
2019-03-12T19:15:14.787Z,75.70
2019-03-12T19:17:43.313Z,76.20
2019-03-12T19:20:15.753Z,77.00
2019-03-12T19:22:44.111Z,79.50
2019-03-12T19:25:17.891Z,81.10
2019-03-12T19:27:58.892Z,83.50
2019-03-12T19:30:18.503Z,83.90
2019-03-12T19:32:51.316Z,83.70
2019-03-12T19:35:21.949Z,83.00
2019-03-12T19:37:50.315Z,83.50
2019-03-12T19:40:21.401Z,85.60
2019-03-12T19:42:49.852Z,84.70
2019-03-12T19:45:18.229Z,84.50
2019-03-12T19:47:46.611Z,85.10
2019-03-12T19:50:19.896Z,85.80
2019-03-12T19:52:48.280Z,83.40
2019-03-12T19:55:22.291Z,82.80
2019-03-12T19:57:51.628Z,81.60
2019-03-12T20:00:21.051Z,82.20
2019-03-12T20:02:49.597Z,81.10
2019-03-12T20:05:18.043Z,80.20
2019-03-12T20:07:46.418Z,80.90
2019-03-12T20:10:29.856Z,81.70
2019-03-12T20:13:30.161Z,80.10
2019-03-12T20:16:30.556Z,83.70
2019-03-12T20:19:35.123Z,85.80
2019-03-12T20:22:24.591Z,87.10
2019-03-12T20:25:12.488Z,89.30
2019-03-12T20:28:15.634Z,90.70
2019-03-12T20:31:08.335Z,91.60
2019-03-12T20:33:51.677Z,92.30
2019-03-12T20:36:51.728Z,93.20
2019-03-12T20:39:39.392Z,93.60
2019-03-12T20:42:22.419Z,94.70
2019-03-12T20:45:16.571Z,96.00
2019-03-12T20:48:02.576Z,96.10
2019-03-12T20:50:50.814Z,95.20
2019-03-12T20:53:40.483Z,96.50
2019-03-12T20:56:28.536Z,96.90
2019-03-12T20:59:22.563Z,97.40
2019-03-12T21:02:27.791Z,98.00
2019-03-12T21:05:14.267Z,98.10
2019-03-12T21:07:57.096Z,98.40
2019-03-12T21:10:37.339Z,98.20
2019-03-12T21:13:30.116Z,98.00
2019-03-12T21:16:35.116Z,98.30
2019-03-12T21:19:35.288Z,98.80
2019-03-12T21:22:09.601Z,98.80
2019-03-12T21:24:41.055Z,98.90
2019-03-12T21:27:18.292Z,99.00
2019-03-12T21:29:46.859Z,98.60
2019-03-12T21:32:16.772Z,98.40
2019-03-12T21:34:45.168Z,98.00
2019-03-12T21:37:14.480Z,98.30
2019-03-12T21:39:54.614Z,98.30
2019-03-12T21:42:13.088Z,97.90
2019-03-12T21:44:41.527Z,97.80
2019-03-12T21:47:09.977Z,98.20
2019-03-12T21:49:38.366Z,98.30
2019-03-12T21:52:07.352Z,98.20
2019-03-12T21:54:35.809Z,98.20
2019-03-12T21:57:04.270Z,98.60
2019-03-12T21:59:32.640Z,99.00
2019-03-12T22:02:01.012Z,98.90
2019-03-12T22:04:29.392Z,98.80
2019-03-12T22:06:57.759Z,98.60
2019-03-12T22:09:26.131Z,98.30
2019-03-12T22:11:54.516Z,98.30
2019-03-12T22:14:22.892Z,98.50
2019-03-12T22:16:52.754Z,98.90
2019-03-12T22:19:21.124Z,99.00
2019-03-12T22:21:51.164Z,99.20
2019-03-12T22:24:20.610Z,99.20
2019-03-12T22:26:48.975Z,99.20
2019-03-12T22:29:18.208Z,98.80
2019-03-12T22:31:46.577Z,99.00
2019-03-12T22:34:14.959Z,99.20
2019-03-12T22:36:43.332Z,99.00
2019-03-12T22:39:11.707Z,98.70
2019-03-12T22:41:40.092Z,98.90
2019-03-12T22:44:08.467Z,99.00
2019-03-12T22:46:36.851Z,99.20
2019-03-12T22:49:05.228Z,98.70
2019-03-12T22:51:33.611Z,98.60
2019-03-12T22:54:01.992Z,98.00
2019-03-12T22:56:30.368Z,97.80
2019-03-12T22:58:58.751Z,97.20
2019-03-12T23:01:27.135Z,96.60
2019-03-12T23:03:55.503Z,96.70
2019-03-12T23:06:23.871Z,96.10
2019-03-12T23:08:52.325Z,95.80
2019-03-12T23:11:20.687Z,95.60
2019-03-12T23:13:49.063Z,95.50
2019-03-12T23:16:17.452Z,95.20
2019-03-12T23:18:45.896Z,95.00
2019-03-12T23:21:14.272Z,94.80
2019-03-12T23:23:42.727Z,95.10
2019-03-12T23:26:11.115Z,94.50
2019-03-12T23:28:39.499Z,94.60
2019-03-12T23:31:07.876Z,94.40
2019-03-12T23:33:36.248Z,94.80
2019-03-12T23:36:04.618Z,95.10
2019-03-12T23:38:32.999Z,94.90
2019-03-12T23:41:01.376Z,94.80
2019-03-12T23:43:29.844Z,95.00
2019-03-12T23:45:58.212Z,94.90
2019-03-12T23:48:26.585Z,95.10
2019-03-12T23:50:54.963Z,95.30
2019-03-12T23:53:23.336Z,95.20
2019-03-12T23:55:51.951Z,95.30
2019-03-12T23:58:20.555Z,95.30
